sensor_id;sensor_type;location;lat;lon;timestamp;pressure;altitude;pressure_sealevel;temperature;humidity
45541;BME280;31265;49.680;8.608;2024-03-02T00:01:56;99396.75;;;3.50;100.00
45541;BME280;31265;49.680;8.608;2024-03-02T00:04:25;99398.03;;;3.49;100.00
45541;BME280;31265;49.680;8.608;2024-03-02T00:06:54;99398.78;;;3.50;100.00
45541;BME280;31265;49.680;8.608;2024-03-02T00:09:23;99406.13;;;3.55;100.00
45541;BME280;31265;49.680;8.608;2024-03-02T00:11:52;99404.31;;;3.57;100.00
45541;BME280;31265;49.680;8.608;2024-03-02T00:14:22;99401.06;;;3.59;100.00
45541;BME280;31265;49.680;8.608;2024-03-02T00:16:51;99390.19;;;3.53;100.00
45541;BME280;31265;49.680;8.608;2024-03-02T00:19:20;99381.66;;;3.57;100.00
45541;BME280;31265;49.680;8.608;2024-03-02T00:21:48;99390.81;;;3.59;100.00
45541;BME280;31265;49.680;8.608;2024-03-02T00:24:20;99390.34;;;3.69;100.00
45541;BME280;31265;49.680;8.608;2024-03-02T00:26:51;99389.41;;;3.66;100.00
45541;BME280;31265;49.680;8.608;2024-03-02T00:29:19;99377.56;;;3.71;100.00
45541;BME280;31265;49.680;8.608;2024-03-02T00:31:49;99381.34;;;3.68;100.00
45541;BME280;31265;49.680;8.608;2024-03-02T00:34:18;99375.50;;;3.64;100.00
45541;BME280;31265;49.680;8.608;2024-03-02T00:36:46;99377.31;;;3.61;100.00
45541;BME280;31265;49.680;8.608;2024-03-02T00:39:16;99390.41;;;3.55;100.00
45541;BME280;31265;49.680;8.608;2024-03-02T00:41:45;99389.63;;;3.47;100.00
45541;BME280;31265;49.680;8.608;2024-03-02T00:44:15;99391.22;;;3.42;100.00
45541;BME280;31265;49.680;8.608;2024-03-02T00:46:44;99399.03;;;3.38;100.00
45541;BME280;31265;49.680;8.608;2024-03-02T00:49:21;99396.44;;;3.33;100.00
45541;BME280;31265;49.680;8.608;2024-03-02T00:51:51;99387.78;;;3.29;100.00
45541;BME280;31265;49.680;8.608;2024-03-02T00:54:21;99392.34;;;3.26;100.00
45541;BME280;31265;49.680;8.608;2024-03-02T00:56:52;99388.34;;;3.27;100.00
45541;BME280;31265;49.680;8.608;2024-03-02T00:59:22;99393.63;;;3.25;100.00
45541;BME280;31265;49.680;8.608;2024-03-02T01:01:52;99384.75;;;3.19;100.00
45541;BME280;31265;49.680;8.608;2024-03-02T01:04:23;99385.63;;;3.14;100.00
45541;BME280;31265;49.680;8.608;2024-03-02T01:06:51;99390.00;;;3.09;100.00
45541;BME280;31265;49.680;8.608;2024-03-02T01:09:19;99396.31;;;3.04;100.00
45541;BME280;31265;49.680;8.608;2024-03-02T01:11:48;99405.59;;;3.01;100.00
45541;BME280;31265;49.680;8.608;2024-03-02T01:14:16;99406.69;;;2.98;100.00
45541;BME280;31265;49.680;8.608;2024-03-02T01:16:45;99411.41;;;2.97;100.00
45541;BME280;31265;49.680;8.608;2024-03-02T01:19:14;99407.00;;;2.94;100.00
45541;BME280;31265;49.680;8.608;2024-03-02T01:21:44;99416.19;;;2.97;100.00
45541;BME280;31265;49.680;8.608;2024-03-02T01:24:13;99408.47;;;2.95;100.00
45541;BME280;31265;49.680;8.608;2024-03-02T01:26:42;99411.34;;;2.90;100.00
45541;BME280;31265;49.680;8.608;2024-03-02T01:29:11;99404.28;;;2.81;100.00
45541;BME280;31265;49.680;8.608;2024-03-02T01:31:39;99403.69;;;2.75;100.00
45541;BME280;31265;49.680;8.608;2024-03-02T01:34:09;99404.00;;;2.71;100.00
45541;BME280;31265;49.680;8.608;2024-03-02T01:36:38;99392.22;;;2.63;100.00
45541;BME280;31265;49.680;8.608;2024-03-02T01:39:07;99398.53;;;2.58;100.00
45541;BME280;31265;49.680;8.608;2024-03-02T01:41:36;99397.34;;;2.67;100.00
45541;BME280;31265;49.680;8.608;2024-03-02T01:44:05;99398.13;;;2.67;100.00
45541;BME280;31265;49.680;8.608;2024-03-02T01:46:34;99391.78;;;2.72;100.00
45541;BME280;31265;49.680;8.608;2024-03-02T01:49:03;99388.84;;;2.70;100.00
45541;BME280;31265;49.680;8.608;2024-03-02T01:51:31;99388.09;;;2.70;100.00
45541;BME280;31265;49.680;8.608;2024-03-02T01:54:00;99378.59;;;2.71;100.00
45541;BME280;31265;49.680;8.608;2024-03-02T01:56:30;99374.19;;;2.68;100.00
45541;BME280;31265;49.680;8.608;2024-03-02T01:58:59;99372.19;;;2.68;100.00
45541;BME280;31265;49.680;8.608;2024-03-02T02:01:28;99370.91;;;2.69;100.00
45541;BME280;31265;49.680;8.608;2024-03-02T02:03:56;99364.47;;;2.67;100.00
45541;BME280;31265;49.680;8.608;2024-03-02T02:06:24;99363.88;;;2.61;100.00
45541;BME280;31265;49.680;8.608;2024-03-02T02:08:53;99359.38;;;2.50;100.00
45541;BME280;31265;49.680;8.608;2024-03-02T02:11:22;99355.38;;;2.51;100.00
45541;BME280;31265;49.680;8.608;2024-03-02T02:13:52;99360.19;;;2.45;100.00
45541;BME280;31265;49.680;8.608;2024-03-02T02:16:22;99361.59;;;2.38;100.00
45541;BME280;31265;49.680;8.608;2024-03-02T02:18:51;99356.97;;;2.33;100.00
45541;BME280;31265;49.680;8.608;2024-03-02T02:21:23;99361.06;;;2.40;100.00
45541;BME280;31265;49.680;8.608;2024-03-02T02:23:52;99358.44;;;2.34;100.00
45541;BME280;31265;49.680;8.608;2024-03-02T02:26:21;99358.22;;;2.32;100.00
45541;BME280;31265;49.680;8.608;2024-03-02T02:28:49;99354.75;;;2.31;100.00
45541;BME280;31265;49.680;8.608;2024-03-02T02:31:17;99350.75;;;2.19;100.00
45541;BME280;31265;49.680;8.608;2024-03-02T02:33:46;99342.66;;;2.13;100.00
45541;BME280;31265;49.680;8.608;2024-03-02T02:36:15;99345.69;;;2.10;100.00
45541;BME280;31265;49.680;8.608;2024-03-02T02:38:47;99344.25;;;2.09;100.00
45541;BME280;31265;49.680;8.608;2024-03-02T02:41:17;99344.75;;;2.07;100.00
45541;BME280;31265;49.680;8.608;2024-03-02T02:43:45;99344.56;;;2.05;100.00
45541;BME280;31265;49.680;8.608;2024-03-02T02:46:14;99343.59;;;2.03;100.00
45541;BME280;31265;49.680;8.608;2024-03-02T02:48:44;99343.59;;;2.03;100.00
45541;BME280;31265;49.680;8.608;2024-03-02T02:51:13;99333.50;;;1.98;100.00
45541;BME280;31265;49.680;8.608;2024-03-02T02:53:41;99334.03;;;1.96;100.00
45541;BME280;31265;49.680;8.608;2024-03-02T02:56:11;99334.56;;;1.94;100.00
45541;BME280;31265;49.680;8.608;2024-03-02T02:58:40;99336.44;;;2.00;100.00
45541;BME280;31265;49.680;8.608;2024-03-02T03:01:09;99333.72;;;2.00;100.00
45541;BME280;31265;49.680;8.608;2024-03-02T03:03:37;99324.03;;;1.99;100.00
45541;BME280;31265;49.680;8.608;2024-03-02T03:06:06;99331.59;;;1.92;100.00
45541;BME280;31265;49.680;8.608;2024-03-02T03:08:36;99330.16;;;1.91;100.00
45541;BME280;31265;49.680;8.608;2024-03-02T03:11:05;99327.63;;;1.93;100.00
45541;BME280;31265;49.680;8.608;2024-03-02T03:13:35;99322.66;;;1.92;100.00
45541;BME280;31265;49.680;8.608;2024-03-02T03:16:04;99326.25;;;1.87;100.00
45541;BME280;31265;49.680;8.608;2024-03-02T03:18:32;99327.53;;;1.86;100.00
45541;BME280;31265;49.680;8.608;2024-03-02T03:21:01;99325.31;;;1.84;100.00
45541;BME280;31265;49.680;8.608;2024-03-02T03:23:29;99326.66;;;1.78;100.00
45541;BME280;31265;49.680;8.608;2024-03-02T03:25:58;99313.53;;;1.76;100.00
45541;BME280;31265;49.680;8.608;2024-03-02T03:28:27;99310.34;;;1.72;100.00
45541;BME280;31265;49.680;8.608;2024-03-02T03:30:56;99319.28;;;1.72;100.00
45541;BME280;31265;49.680;8.608;2024-03-02T03:33:24;99324.47;;;1.76;100.00
45541;BME280;31265;49.680;8.608;2024-03-02T03:35:53;99320.56;;;1.85;100.00
45541;BME280;31265;49.680;8.608;2024-03-02T03:38:22;99319.31;;;1.86;100.00
45541;BME280;31265;49.680;8.608;2024-03-02T03:40:50;99316.75;;;1.88;100.00
45541;BME280;31265;49.680;8.608;2024-03-02T03:43:19;99318.16;;;1.81;100.00
45541;BME280;31265;49.680;8.608;2024-03-02T03:45:47;99314.03;;;1.75;100.00
45541;BME280;31265;49.680;8.608;2024-03-02T03:48:17;99319.84;;;1.71;100.00
45541;BME280;31265;49.680;8.608;2024-03-02T03:50:46;99324.47;;;1.76;100.00
45541;BME280;31265;49.680;8.608;2024-03-02T03:53:14;99333.84;;;1.81;100.00
45541;BME280;31265;49.680;8.608;2024-03-02T03:55:43;99341.28;;;1.80;100.00
45541;BME280;31265;49.680;8.608;2024-03-02T03:58:13;99329.09;;;1.81;100.00
45541;BME280;31265;49.680;8.608;2024-03-02T04:00:41;99335.63;;;1.78;100.00
45541;BME280;31265;49.680;8.608;2024-03-02T04:03:11;99336.03;;;1.82;100.00
45541;BME280;31265;49.680;8.608;2024-03-02T04:05:41;99336.25;;;1.84;100.00
45541;BME280;31265;49.680;8.608;2024-03-02T04:08:09;99323.41;;;1.79;100.00
45541;BME280;31265;49.680;8.608;2024-03-02T04:10:38;99330.66;;;1.77;100.00
45541;BME280;31265;49.680;8.608;2024-03-02T04:13:09;99327.28;;;1.70;100.00
45541;BME280;31265;49.680;8.608;2024-03-02T04:15:37;99325.09;;;1.69;100.00
45541;BME280;31265;49.680;8.608;2024-03-02T04:18:07;99324.97;;;1.61;100.00
45541;BME280;31265;49.680;8.608;2024-03-02T04:20:36;99328.22;;;1.60;100.00
45541;BME280;31265;49.680;8.608;2024-03-02T04:23:05;99335.69;;;1.59;100.00
45541;BME280;31265;49.680;8.608;2024-03-02T04:25:34;99330.66;;;1.63;100.00
45541;BME280;31265;49.680;8.608;2024-03-02T04:28:07;99329.06;;;1.68;100.00
45541;BME280;31265;49.680;8.608;2024-03-02T04:30:35;99328.56;;;1.69;100.00
45541;BME280;31265;49.680;8.608;2024-03-02T04:33:04;99324.13;;;1.66;100.00
45541;BME280;31265;49.680;8.608;2024-03-02T04:35:34;99326.88;;;1.66;100.00
45541;BME280;31265;49.680;8.608;2024-03-02T04:38:03;99328.97;;;1.74;100.00
45541;BME280;31265;49.680;8.608;2024-03-02T04:40:33;99330.97;;;1.73;100.00
45541;BME280;31265;49.680;8.608;2024-03-02T04:43:02;99321.81;;;1.70;100.00
45541;BME280;31265;49.680;8.608;2024-03-02T04:45:30;99332.75;;;1.70;100.00
45541;BME280;31265;49.680;8.608;2024-03-02T04:47:59;99331.28;;;1.69;100.00
45541;BME280;31265;49.680;8.608;2024-03-02T04:50:28;99326.88;;;1.66;100.00
45541;BME280;31265;49.680;8.608;2024-03-02T04:52:56;99332.13;;;1.64;100.00
45541;BME280;31265;49.680;8.608;2024-03-02T04:55:25;99326.22;;;1.60;100.00
45541;BME280;31265;49.680;8.608;2024-03-02T04:58:18;99329.16;;;1.62;100.00
45541;BME280;31265;49.680;8.608;2024-03-02T05:00:47;99334.13;;;1.64;100.00
45541;BME280;31265;49.680;8.608;2024-03-02T05:03:15;99349.38;;;1.72;100.00
45541;BME280;31265;49.680;8.608;2024-03-02T05:05:44;99347.06;;;1.77;100.00
45541;BME280;31265;49.680;8.608;2024-03-02T05:08:12;99349.28;;;1.78;100.00
45541;BME280;31265;49.680;8.608;2024-03-02T05:10:43;99355.91;;;1.83;100.00
45541;BME280;31265;49.680;8.608;2024-03-02T05:13:11;99360.13;;;1.84;100.00
45541;BME280;31265;49.680;8.608;2024-03-02T05:15:41;99360.53;;;1.88;100.00
45541;BME280;31265;49.680;8.608;2024-03-02T05:18:10;99360.75;;;1.90;100.00
45541;BME280;31265;49.680;8.608;2024-03-02T05:20:38;99361.94;;;2.08;100.00
45541;BME280;31265;49.680;8.608;2024-03-02T05:23:07;99368.78;;;2.01;100.00
45541;BME280;31265;49.680;8.608;2024-03-02T05:25:36;99366.03;;;2.01;100.00
45541;BME280;31265;49.680;8.608;2024-03-02T05:28:05;99376.75;;;1.99;100.00
45541;BME280;31265;49.680;8.608;2024-03-02T05:30:34;99380.13;;;1.92;100.00
45541;BME280;31265;49.680;8.608;2024-03-02T05:33:04;99388.00;;;1.82;100.00
45541;BME280;31265;49.680;8.608;2024-03-02T05:35:32;99381.78;;;1.68;100.00
45541;BME280;31265;49.680;8.608;2024-03-02T05:38:03;99384.41;;;1.61;100.00
45541;BME280;31265;49.680;8.608;2024-03-02T05:40:31;99381.31;;;1.51;100.00
45541;BME280;31265;49.680;8.608;2024-03-02T05:43:00;99386.22;;;1.39;100.00
45541;BME280;31265;49.680;8.608;2024-03-02T05:45:28;99386.50;;;1.36;100.00
45541;BME280;31265;49.680;8.608;2024-03-02T05:47:56;99388.38;;;1.27;100.00
45541;BME280;31265;49.680;8.608;2024-03-02T05:50:26;99378.06;;;1.20;100.00
45541;BME280;31265;49.680;8.608;2024-03-02T05:52:55;99381.63;;;1.15;100.00
45541;BME280;31265;49.680;8.608;2024-03-02T05:55:24;99388.13;;;1.12;100.00
45541;BME280;31265;49.680;8.608;2024-03-02T05:57:53;99384.66;;;1.12;100.00
45541;BME280;31265;49.680;8.608;2024-03-02T06:00:38;99386.13;;;1.13;100.00
45541;BME280;31265;49.680;8.608;2024-03-02T06:03:07;99393.59;;;1.12;100.00
45541;BME280;31265;49.680;8.608;2024-03-02T06:05:38;99389.81;;;1.15;100.00
45541;BME280;31265;49.680;8.608;2024-03-02T06:08:07;99387.31;;;1.17;100.00
45541;BME280;31265;49.680;8.608;2024-03-02T06:10:36;99384.78;;;1.19;100.00
45541;BME280;31265;49.680;8.608;2024-03-02T06:13:04;99384.19;;;1.26;100.00
45541;BME280;31265;49.680;8.608;2024-03-02T06:15:33;99392.75;;;1.36;100.00
45541;BME280;31265;49.680;8.608;2024-03-02T06:18:04;99394.66;;;1.41;100.00
45541;BME280;31265;49.680;8.608;2024-03-02T06:20:34;99397.06;;;1.45;100.00
45541;BME280;31265;49.680;8.608;2024-03-02T06:23:05;99395.28;;;1.47;100.00
45541;BME280;31265;49.680;8.608;2024-03-02T06:25:33;99407.19;;;1.50;100.00
45541;BME280;31265;49.680;8.608;2024-03-02T06:28:02;99399.06;;;1.44;100.00
45541;BME280;31265;49.680;8.608;2024-03-02T06:30:31;99398.34;;;1.44;100.00
45541;BME280;31265;49.680;8.608;2024-03-02T06:33:00;99407.06;;;1.42;100.00
45541;BME280;31265;49.680;8.608;2024-03-02T06:35:28;99407.50;;;1.46;100.00
45541;BME280;31265;49.680;8.608;2024-03-02T06:37:57;99409.69;;;1.48;100.00
45541;BME280;31265;49.680;8.608;2024-03-02T06:40:26;99408.22;;;1.47;100.00
45541;BME280;31265;49.680;8.608;2024-03-02T06:42:55;99408.72;;;1.45;100.00
45541;BME280;31265;49.680;8.608;2024-03-02T06:45:24;99409.28;;;1.44;100.00
45541;BME280;31265;49.680;8.608;2024-03-02T06:47:53;99407.56;;;1.41;100.00
45541;BME280;31265;49.680;8.608;2024-03-02T06:50:24;99410.28;;;1.41;100.00
45541;BME280;31265;49.680;8.608;2024-03-02T06:52:53;99413.25;;;1.43;100.00
45541;BME280;31265;49.680;8.608;2024-03-02T06:55:22;99411.19;;;1.49;100.00
45541;BME280;31265;49.680;8.608;2024-03-02T06:57:53;99410.13;;;1.52;100.00
45541;BME280;31265;49.680;8.608;2024-03-02T07:00:22;99407.41;;;1.52;100.00
45541;BME280;31265;49.680;8.608;2024-03-02T07:02:51;99403.63;;;1.55;100.00
45541;BME280;31265;49.680;8.608;2024-03-02T07:05:19;99408.34;;;1.55;100.00
45541;BME280;31265;49.680;8.608;2024-03-02T07:07:48;99404.34;;;1.56;100.00
45541;BME280;31265;49.680;8.608;2024-03-02T07:10:16;99421.94;;;1.60;100.00
45541;BME280;31265;49.680;8.608;2024-03-02T07:12:45;99421.31;;;1.67;100.00
45541;BME280;31265;49.680;8.608;2024-03-02T07:15:15;99420.72;;;1.75;100.00
45541;BME280;31265;49.680;8.608;2024-03-02T07:18:06;99421.16;;;1.79;100.00
45541;BME280;31265;49.680;8.608;2024-03-02T07:20:34;99425.56;;;1.82;100.00
45541;BME280;31265;49.680;8.608;2024-03-02T07:23:03;99431.75;;;1.82;100.00
45541;BME280;31265;49.680;8.608;2024-03-02T07:25:32;99430.53;;;1.83;100.00
45541;BME280;31265;49.680;8.608;2024-03-02T07:28:05;99436.72;;;1.84;100.00
45541;BME280;31265;49.680;8.608;2024-03-02T07:30:35;99430.41;;;1.89;100.00
45541;BME280;31265;49.680;8.608;2024-03-02T07:33:05;99432.66;;;2.04;100.00
45541;BME280;31265;49.680;8.608;2024-03-02T07:35:34;99439.09;;;2.20;100.00
45541;BME280;31265;49.680;8.608;2024-03-02T07:38:04;99435.59;;;2.32;100.00
45541;BME280;31265;49.680;8.608;2024-03-02T07:40:33;99436.47;;;2.54;100.00
45541;BME280;31265;49.680;8.608;2024-03-02T07:43:02;99438.75;;;2.90;100.00
45541;BME280;31265;49.680;8.608;2024-03-02T07:45:30;99454.50;;;3.44;100.00
45541;BME280;31265;49.680;8.608;2024-03-02T07:48:00;99450.44;;;4.01;100.00
45541;BME280;31265;49.680;8.608;2024-03-02T07:50:31;99453.78;;;4.36;100.00
45541;BME280;31265;49.680;8.608;2024-03-02T07:53:03;99444.44;;;4.39;100.00
45541;BME280;31265;49.680;8.608;2024-03-02T07:55:32;99458.47;;;4.56;100.00
45541;BME280;31265;49.680;8.608;2024-03-02T07:58:01;99456.88;;;4.68;100.00
45541;BME280;31265;49.680;8.608;2024-03-02T08:00:30;99455.44;;;4.67;100.00
45541;BME280;31265;49.680;8.608;2024-03-02T08:03:00;99455.03;;;5.07;100.00
45541;BME280;31265;49.680;8.608;2024-03-02T08:05:29;99454.19;;;5.35;100.00
45541;BME280;31265;49.680;8.608;2024-03-02T08:07:58;99451.44;;;5.43;100.00
45541;BME280;31265;49.680;8.608;2024-03-02T08:10:27;99455.91;;;5.85;100.00
45541;BME280;31265;49.680;8.608;2024-03-02T08:12:56;99457.56;;;6.11;100.00
45541;BME280;31265;49.680;8.608;2024-03-02T08:15:25;99452.59;;;6.32;100.00
45541;BME280;31265;49.680;8.608;2024-03-02T08:17:54;99463.59;;;6.47;100.00
45541;BME280;31265;49.680;8.608;2024-03-02T08:20:25;99454.19;;;6.66;100.00
45541;BME280;31265;49.680;8.608;2024-03-02T08:22:54;99464.22;;;6.86;100.00
45541;BME280;31265;49.680;8.608;2024-03-02T08:25:23;99461.00;;;7.13;100.00
45541;BME280;31265;49.680;8.608;2024-03-02T08:27:51;99459.97;;;7.33;100.00
45541;BME280;31265;49.680;8.608;2024-03-02T08:30:19;99452.88;;;7.48;100.00
45541;BME280;31265;49.680;8.608;2024-03-02T08:32:48;99461.25;;;7.65;100.00
45541;BME280;31265;49.680;8.608;2024-03-02T08:35:17;99461.41;;;7.92;100.00
45541;BME280;31265;49.680;8.608;2024-03-02T08:37:47;99454.03;;;7.95;100.00
45541;BME280;31265;49.680;8.608;2024-03-02T08:40:16;99454.19;;;7.97;100.00
45541;BME280;31265;49.680;8.608;2024-03-02T08:42:45;99459.78;;;7.89;100.00
45541;BME280;31265;49.680;8.608;2024-03-02T08:45:15;99452.66;;;7.79;100.00
45541;BME280;31265;49.680;8.608;2024-03-02T08:47:43;99450.53;;;7.94;100.00
45541;BME280;31265;49.680;8.608;2024-03-02T08:50:13;99456.78;;;7.95;100.00
45541;BME280;31265;49.680;8.608;2024-03-02T08:52:42;99448.53;;;8.12;100.00
45541;BME280;31265;49.680;8.608;2024-03-02T08:55:12;99465.13;;;8.30;100.00
45541;BME280;31265;49.680;8.608;2024-03-02T08:57:40;99461.97;;;8.16;100.00
45541;BME280;31265;49.680;8.608;2024-03-02T09:00:10;99461.13;;;8.66;100.00
45541;BME280;31265;49.680;8.608;2024-03-02T09:02:39;99459.47;;;8.97;100.00
45541;BME280;31265;49.680;8.608;2024-03-02T09:05:08;99462.88;;;9.06;100.00
45541;BME280;31265;49.680;8.608;2024-03-02T09:07:36;99454.50;;;9.40;100.00
45541;BME280;31265;49.680;8.608;2024-03-02T09:10:06;99450.09;;;9.37;100.00
45541;BME280;31265;49.680;8.608;2024-03-02T09:12:37;99451.94;;;9.52;100.00
45541;BME280;31265;49.680;8.608;2024-03-02T09:15:06;99447.34;;;9.37;100.00
45541;BME280;31265;49.680;8.608;2024-03-02T09:17:35;99448.63;;;9.36;100.00
45541;BME280;31265;49.680;8.608;2024-03-02T09:20:05;99443.50;;;9.60;100.00
45541;BME280;31265;49.680;8.608;2024-03-02T09:22:33;99440.03;;;9.69;100.00
45541;BME280;31265;49.680;8.608;2024-03-02T09:25:02;99443.00;;;9.81;100.00
45541;BME280;31265;49.680;8.608;2024-03-02T09:27:31;99436.50;;;10.15;100.00
45541;BME280;31265;49.680;8.608;2024-03-02T09:30:01;99447.66;;;10.35;100.00
45541;BME280;31265;49.680;8.608;2024-03-02T09:32:29;99442.28;;;10.37;100.00
45541;BME280;31265;49.680;8.608;2024-03-02T09:34:58;99443.31;;;10.41;100.00
45541;BME280;31265;49.680;8.608;2024-03-02T09:37:26;99453.78;;;10.43;100.00
45541;BME280;31265;49.680;8.608;2024-03-02T09:39:56;99447.09;;;10.65;100.00
45541;BME280;31265;49.680;8.608;2024-03-02T09:42:24;99444.47;;;10.67;100.00
45541;BME280;31265;49.680;8.608;2024-03-02T09:44:54;99448.56;;;10.66;100.00
45541;BME280;31265;49.680;8.608;2024-03-02T09:47:23;99437.72;;;11.00;100.00
45541;BME280;31265;49.680;8.608;2024-03-02T09:49:52;99434.03;;;11.16;100.00
45541;BME280;31265;49.680;8.608;2024-03-02T09:52:23;99429.56;;;10.53;100.00
45541;BME280;31265;49.680;8.608;2024-03-02T09:54:52;99425.63;;;10.75;100.00
45541;BME280;31265;49.680;8.608;2024-03-02T09:57:20;99428.38;;;10.95;100.00
45541;BME280;31265;49.680;8.608;2024-03-02T09:59:50;99428.41;;;10.56;100.00
45541;BME280;31265;49.680;8.608;2024-03-02T10:02:20;99417.59;;;10.80;100.00
45541;BME280;31265;49.680;8.608;2024-03-02T10:04:50;99425.31;;;10.91;100.00
45541;BME280;31265;49.680;8.608;2024-03-02T10:07:18;99422.41;;;10.98;100.00
45541;BME280;31265;49.680;8.608;2024-03-02T10:09:48;99417.28;;;10.85;100.00
45541;BME280;31265;49.680;8.608;2024-03-02T10:12:17;99414.81;;;10.70;100.00
45541;BME280;31265;49.680;8.608;2024-03-02T10:14:46;99409.97;;;10.90;100.00
45541;BME280;31265;49.680;8.608;2024-03-02T10:17:17;99412.00;;;10.99;100.00
45541;BME280;31265;49.680;8.608;2024-03-02T10:19:48;99403.28;;;10.83;100.00
45541;BME280;31265;49.680;8.608;2024-03-02T10:22:18;99403.53;;;10.97;100.00
45541;BME280;31265;49.680;8.608;2024-03-02T10:24:46;99402.25;;;10.98;100.00
45541;BME280;31265;49.680;8.608;2024-03-02T10:27:23;99400.16;;;11.18;100.00
45541;BME280;31265;49.680;8.608;2024-03-02T10:29:52;99407.09;;;11.38;100.00
45541;BME280;31265;49.680;8.608;2024-03-02T10:32:22;99395.81;;;11.36;100.00
45541;BME280;31265;49.680;8.608;2024-03-02T10:34:51;99392.88;;;11.44;100.00
45541;BME280;31265;49.680;8.608;2024-03-02T10:37:22;99389.34;;;11.53;100.00
45541;BME280;31265;49.680;8.608;2024-03-02T10:39:52;99387.03;;;11.71;100.00
45541;BME280;31265;49.680;8.608;2024-03-02T10:42:22;99384.31;;;11.93;100.00
45541;BME280;31265;49.680;8.608;2024-03-02T10:44:53;99397.03;;;11.96;100.00
45541;BME280;31265;49.680;8.608;2024-03-02T10:47:22;99388.03;;;12.07;100.00
45541;BME280;31265;49.680;8.608;2024-03-02T10:49:52;99382.88;;;12.13;100.00
45541;BME280;31265;49.680;8.608;2024-03-02T10:52:23;99383.53;;;12.23;100.00
45541;BME280;31265;49.680;8.608;2024-03-02T10:54:51;99383.44;;;12.33;100.00
45541;BME280;31265;49.680;8.608;2024-03-02T10:57:21;99377.47;;;12.48;100.00
45541;BME280;31265;49.680;8.608;2024-03-02T10:59:53;99377.16;;;12.66;100.00
45541;BME280;31265;49.680;8.608;2024-03-02T11:02:25;99380.34;;;12.72;100.00
45541;BME280;31265;49.680;8.608;2024-03-02T11:04:55;99378.59;;;13.12;100.00
45541;BME280;31265;49.680;8.608;2024-03-02T11:07:27;99378.00;;;13.02;100.00
45541;BME280;31265;49.680;8.608;2024-03-02T11:10:00;99378.91;;;13.63;100.00
45541;BME280;31265;49.680;8.608;2024-03-02T11:12:38;99381.06;;;13.76;100.00
45541;BME280;31265;49.680;8.608;2024-03-02T11:15:16;99381.16;;;14.02;100.00
45541;BME280;31265;49.680;8.608;2024-03-02T11:17:46;99386.25;;;14.43;100.00
45541;BME280;31265;49.680;8.608;2024-03-02T11:20:16;99372.25;;;14.80;90.24
45541;BME280;31265;49.680;8.608;2024-03-02T11:22:47;99373.56;;;14.91;93.82
45541;BME280;31265;49.680;8.608;2024-03-02T11:25:23;99370.69;;;14.52;100.00
45541;BME280;31265;49.680;8.608;2024-03-02T11:28:02;99367.69;;;14.73;88.05
45541;BME280;31265;49.680;8.608;2024-03-02T11:30:51;99357.69;;;14.82;86.85
45541;BME280;31265;49.680;8.608;2024-03-02T11:33:38;99349.13;;;14.92;93.02
45541;BME280;31265;49.680;8.608;2024-03-02T11:36:07;99355.81;;;15.26;80.80
45541;BME280;31265;49.680;8.608;2024-03-02T11:38:43;99357.50;;;15.59;75.11
45541;BME280;31265;49.680;8.608;2024-03-02T11:41:12;99355.56;;;15.08;68.45
45541;BME280;31265;49.680;8.608;2024-03-02T11:43:42;99348.44;;;14.66;85.09
45541;BME280;31265;49.680;8.608;2024-03-02T11:46:12;99341.91;;;15.00;82.95
45541;BME280;31265;49.680;8.608;2024-03-02T11:49:04;99336.41;;;14.89;75.88
45541;BME280;31265;49.680;8.608;2024-03-02T11:51:34;99337.81;;;15.29;67.31
45541;BME280;31265;49.680;8.608;2024-03-02T11:54:11;99336.69;;;15.48;68.99
45541;BME280;31265;49.680;8.608;2024-03-02T11:56:46;99324.56;;;15.43;68.18
45541;BME280;31265;49.680;8.608;2024-03-02T11:59:23;99317.22;;;15.64;72.43
45541;BME280;31265;49.680;8.608;2024-03-02T12:01:53;99317.00;;;15.46;70.05
45541;BME280;31265;49.680;8.608;2024-03-02T12:04:23;99310.28;;;15.37;72.42
45541;BME280;31265;49.680;8.608;2024-03-02T12:06:55;99305.91;;;15.20;71.76
45541;BME280;31265;49.680;8.608;2024-03-02T12:09:28;99309.97;;;15.45;68.98
45541;BME280;31265;49.680;8.608;2024-03-02T12:12:04;99310.72;;;15.73;66.74
45541;BME280;31265;49.680;8.608;2024-03-02T12:14:35;99310.09;;;15.33;69.95
45541;BME280;31265;49.680;8.608;2024-03-02T12:17:04;99304.06;;;15.53;72.17
45541;BME280;31265;49.680;8.608;2024-03-02T12:19:35;99297.00;;;15.79;69.08
45541;BME280;31265;49.680;8.608;2024-03-02T12:22:05;99281.88;;;15.84;70.53
45541;BME280;31265;49.680;8.608;2024-03-02T12:24:35;99280.34;;;15.81;69.89
45541;BME280;31265;49.680;8.608;2024-03-02T12:27:05;99284.69;;;15.57;77.43
45541;BME280;31265;49.680;8.608;2024-03-02T12:29:33;99285.31;;;15.55;68.86
45541;BME280;31265;49.680;8.608;2024-03-02T12:32:04;99279.22;;;15.59;76.55
45541;BME280;31265;49.680;8.608;2024-03-02T12:34:34;99274.88;;;15.28;75.32
45541;BME280;31265;49.680;8.608;2024-03-02T12:37:03;99276.75;;;15.37;76.49
45541;BME280;31265;49.680;8.608;2024-03-02T12:39:31;99271.44;;;15.57;74.21
45541;BME280;31265;49.680;8.608;2024-03-02T12:42:02;99267.22;;;15.56;73.29
45541;BME280;31265;49.680;8.608;2024-03-02T12:44:31;99257.56;;;15.73;70.60
45541;BME280;31265;49.680;8.608;2024-03-02T12:46:59;99266.22;;;15.93;73.88
45541;BME280;31265;49.680;8.608;2024-03-02T12:49:28;99257.84;;;15.93;70.11
45541;BME280;31265;49.680;8.608;2024-03-02T12:51:58;99258.06;;;15.83;71.39
45541;BME280;31265;49.680;8.608;2024-03-02T12:54:27;99254.72;;;15.87;73.93
45541;BME280;31265;49.680;8.608;2024-03-02T12:56:56;99245.81;;;16.20;67.31
45541;BME280;31265;49.680;8.608;2024-03-02T12:59:26;99254.34;;;15.65;77.59
45541;BME280;31265;49.680;8.608;2024-03-02T13:01:55;99248.78;;;15.95;71.97
45541;BME280;31265;49.680;8.608;2024-03-02T13:04:25;99242.81;;;16.16;72.07
45541;BME280;31265;49.680;8.608;2024-03-02T13:06:56;99247.34;;;16.23;68.44
45541;BME280;31265;49.680;8.608;2024-03-02T13:09:26;99247.69;;;16.16;68.54
45541;BME280;31265;49.680;8.608;2024-03-02T13:11:55;99246.47;;;16.34;72.45